sensor_id;sensor_type;location;lat;lon;timestamp;P1;P2;P0
83543;PMS5003;73487;54.448;-0.942;2024-03-02T00:02:50;15;14;9
83543;PMS5003;73487;54.448;-0.942;2024-03-02T00:05:50;15;14;9
83543;PMS5003;73487;54.448;-0.942;2024-03-02T00:08:50;17;14;7
83543;PMS5003;73487;54.448;-0.942;2024-03-02T00:12:20;13;13;6
83543;PMS5003;73487;54.448;-0.942;2024-03-02T00:21:20;14;14;9
83543;PMS5003;73487;54.448;-0.942;2024-03-02T00:27:20;11;11;9
83543;PMS5003;73487;54.448;-0.942;2024-03-02T00:33:21;10;10;5
83543;PMS5003;73487;54.448;-0.942;2024-03-02T00:36:29;14;14;9
83543;PMS5003;73487;54.448;-0.942;2024-03-02T00:39:20;15;14;7
83543;PMS5003;73487;54.448;-0.942;2024-03-02T00:42:20;10;10;6
83543;PMS5003;73487;54.448;-0.942;2024-03-02T00:45:20;15;14;10
83543;PMS5003;73487;54.448;-0.942;2024-03-02T00:48:20;15;14;9
83543;PMS5003;73487;54.448;-0.942;2024-03-02T00:51:21;11;11;6
83543;PMS5003;73487;54.448;-0.942;2024-03-02T00:54:21;13;11;7
83543;PMS5003;73487;54.448;-0.942;2024-03-02T00:57:20;13;13;6
83543;PMS5003;73487;54.448;-0.942;2024-03-02T01:00:20;17;14;7
83543;PMS5003;73487;54.448;-0.942;2024-03-02T01:03:20;17;13;9
83543;PMS5003;73487;54.448;-0.942;2024-03-02T01:06:20;10;9;7
83543;PMS5003;73487;54.448;-0.942;2024-03-02T01:09:20;10;10;6
83543;PMS5003;73487;54.448;-0.942;2024-03-02T01:12:20;14;13;9
83543;PMS5003;73487;54.448;-0.942;2024-03-02T01:15:20;20;18;11
83543;PMS5003;73487;54.448;-0.942;2024-03-02T01:18:20;14;13;7
83543;PMS5003;73487;54.448;-0.942;2024-03-02T01:21:20;22;21;11
83543;PMS5003;73487;54.448;-0.942;2024-03-02T01:24:20;9;7;3
83543;PMS5003;73487;54.448;-0.942;2024-03-02T01:27:20;13;13;7
83543;PMS5003;73487;54.448;-0.942;2024-03-02T01:30:20;15;15;9
83543;PMS5003;73487;54.448;-0.942;2024-03-02T01:33:20;14;13;7
83543;PMS5003;73487;54.448;-0.942;2024-03-02T01:36:20;17;15;10
83543;PMS5003;73487;54.448;-0.942;2024-03-02T01:39:20;19;18;10
83543;PMS5003;73487;54.448;-0.942;2024-03-02T01:42:20;13;10;6
83543;PMS5003;73487;54.448;-0.942;2024-03-02T01:45:21;17;16;8
83543;PMS5003;73487;54.448;-0.942;2024-03-02T01:48:20;20;18;10
83543;PMS5003;73487;54.448;-0.942;2024-03-02T01:51:20;22;21;9
83543;PMS5003;73487;54.448;-0.942;2024-03-02T01:54:20;18;16;9
83543;PMS5003;73487;54.448;-0.942;2024-03-02T01:57:20;16;14;5
83543;PMS5003;73487;54.448;-0.942;2024-03-02T02:00:21;18;15;10
83543;PMS5003;73487;54.448;-0.942;2024-03-02T02:03:20;20;16;9
83543;PMS5003;73487;54.448;-0.942;2024-03-02T02:06:20;17;16;12
83543;PMS5003;73487;54.448;-0.942;2024-03-02T02:09:20;20;20;12
83543;PMS5003;73487;54.448;-0.942;2024-03-02T02:12:20;17;16;9
83543;PMS5003;73487;54.448;-0.942;2024-03-02T02:15:21;18;17;12
83543;PMS5003;73487;54.448;-0.942;2024-03-02T02:18:20;18;18;10
83543;PMS5003;73487;54.448;-0.942;2024-03-02T02:21:23;26;23;11
83543;PMS5003;73487;54.448;-0.942;2024-03-02T02:24:20;23;19;11
83543;PMS5003;73487;54.448;-0.942;2024-03-02T02:27:20;17;17;10
83543;PMS5003;73487;54.448;-0.942;2024-03-02T02:30:24;14;14;8
83543;PMS5003;73487;54.448;-0.942;2024-03-02T02:33:20;17;16;10
83543;PMS5003;73487;54.448;-0.942;2024-03-02T02:36:20;21;18;11
83543;PMS5003;73487;54.448;-0.942;2024-03-02T02:39:21;17;15;10
83543;PMS5003;73487;54.448;-0.942;2024-03-02T02:42:20;22;21;11
83543;PMS5003;73487;54.448;-0.942;2024-03-02T02:45:20;22;19;11
83543;PMS5003;73487;54.448;-0.942;2024-03-02T02:48:20;19;18;10
83543;PMS5003;73487;54.448;-0.942;2024-03-02T02:51:20;15;14;9
83543;PMS5003;73487;54.448;-0.942;2024-03-02T02:54:20;17;13;9
83543;PMS5003;73487;54.448;-0.942;2024-03-02T02:57:20;13;13;9
83543;PMS5003;73487;54.448;-0.942;2024-03-02T03:00:20;22;19;11
83543;PMS5003;73487;54.448;-0.942;2024-03-02T03:03:20;24;21;13
83543;PMS5003;73487;54.448;-0.942;2024-03-02T03:06:20;23;23;11
83543;PMS5003;73487;54.448;-0.942;2024-03-02T03:09:20;26;24;14
83543;PMS5003;73487;54.448;-0.942;2024-03-02T03:12:50;26;25;15
83543;PMS5003;73487;54.448;-0.942;2024-03-02T03:15:50;24;24;11
83543;PMS5003;73487;54.448;-0.942;2024-03-02T03:18:50;21;17;10
83543;PMS5003;73487;54.448;-0.942;2024-03-02T03:21:50;14;14;7
83543;PMS5003;73487;54.448;-0.942;2024-03-02T03:24:50;16;15;9
83543;PMS5003;73487;54.448;-0.942;2024-03-02T03:27:50;16;15;9
83543;PMS5003;73487;54.448;-0.942;2024-03-02T03:30:50;14;14;9
83543;PMS5003;73487;54.448;-0.942;2024-03-02T03:33:50;21;21;9
83543;PMS5003;73487;54.448;-0.942;2024-03-02T03:36:50;18;18;10
83543;PMS5003;73487;54.448;-0.942;2024-03-02T03:39:50;17;15;13
83543;PMS5003;73487;54.448;-0.942;2024-03-02T03:42:50;19;18;10
83543;PMS5003;73487;54.448;-0.942;2024-03-02T03:45:50;19;19;11
83543;PMS5003;73487;54.448;-0.942;2024-03-02T03:48:50;20;20;14
83543;PMS5003;73487;54.448;-0.942;2024-03-02T03:51:50;22;19;13
83543;PMS5003;73487;54.448;-0.942;2024-03-02T03:54:50;22;21;14
83543;PMS5003;73487;54.448;-0.942;2024-03-02T03:57:50;25;22;14
83543;PMS5003;73487;54.448;-0.942;2024-03-02T04:00:50;22;21;11
83543;PMS5003;73487;54.448;-0.942;2024-03-02T04:03:50;18;17;11
83543;PMS5003;73487;54.448;-0.942;2024-03-02T04:06:50;19;19;13
83543;PMS5003;73487;54.448;-0.942;2024-03-02T04:09:50;23;23;11
83543;PMS5003;73487;54.448;-0.942;2024-03-02T04:12:50;23;21;11
83543;PMS5003;73487;54.448;-0.942;2024-03-02T04:15:50;28;27;13
83543;PMS5003;73487;54.448;-0.942;2024-03-02T04:18:50;18;17;10
83543;PMS5003;73487;54.448;-0.942;2024-03-02T04:21:50;22;21;11
83543;PMS5003;73487;54.448;-0.942;2024-03-02T04:24:50;23;23;11
83543;PMS5003;73487;54.448;-0.942;2024-03-02T04:27:50;21;19;9
83543;PMS5003;73487;54.448;-0.942;2024-03-02T04:30:50;18;16;9
83543;PMS5003;73487;54.448;-0.942;2024-03-02T04:33:50;14;14;7
83543;PMS5003;73487;54.448;-0.942;2024-03-02T04:36:50;14;13;9
83543;PMS5003;73487;54.448;-0.942;2024-03-02T04:39:50;6;6;3
83543;PMS5003;73487;54.448;-0.942;2024-03-02T04:42:50;22;19;10
83543;PMS5003;73487;54.448;-0.942;2024-03-02T04:45:50;17;17;9
83543;PMS5003;73487;54.448;-0.942;2024-03-02T04:48:50;14;14;7
83543;PMS5003;73487;54.448;-0.942;2024-03-02T04:51:50;25;22;11
83543;PMS5003;73487;54.448;-0.942;2024-03-02T04:54:50;21;18;10
83543;PMS5003;73487;54.448;-0.942;2024-03-02T04:57:50;19;19;11
83543;PMS5003;73487;54.448;-0.942;2024-03-02T05:00:50;19;17;10
83543;PMS5003;73487;54.448;-0.942;2024-03-02T05:03:50;21;21;7
83543;PMS5003;73487;54.448;-0.942;2024-03-02T05:06:50;19;18;9
83543;PMS5003;73487;54.448;-0.942;2024-03-02T05:09:50;21;19;9
83543;PMS5003;73487;54.448;-0.942;2024-03-02T05:12:50;19;19;9
83543;PMS5003;73487;54.448;-0.942;2024-03-02T05:15:50;20;20;10
83543;PMS5003;73487;54.448;-0.942;2024-03-02T05:18:50;13;11;6
83543;PMS5003;73487;54.448;-0.942;2024-03-02T05:21:50;13;13;7
83543;PMS5003;73487;54.448;-0.942;2024-03-02T05:24:50;2;2;1
83543;PMS5003;73487;54.448;-0.942;2024-03-02T05:27:50;6;6;2
83543;PMS5003;73487;54.448;-0.942;2024-03-02T05:30:50;5;5;2
83543;PMS5003;73487;54.448;-0.942;2024-03-02T05:33:50;6;6;3
83543;PMS5003;73487;54.448;-0.942;2024-03-02T05:36:50;2;2;1
83543;PMS5003;73487;54.448;-0.942;2024-03-02T05:39:50;6;6;2
83543;PMS5003;73487;54.448;-0.942;2024-03-02T05:42:50;7;7;2
83543;PMS5003;73487;54.448;-0.942;2024-03-02T05:45:50;7;7;3
83543;PMS5003;73487;54.448;-0.942;2024-03-02T05:48:50;6;6;3
83543;PMS5003;73487;54.448;-0.942;2024-03-02T05:51:50;14;11;6
83543;PMS5003;73487;54.448;-0.942;2024-03-02T05:54:50;10;9;7
83543;PMS5003;73487;54.448;-0.942;2024-03-02T05:57:50;10;10;3
83543;PMS5003;73487;54.448;-0.942;2024-03-02T06:00:50;9;7;3
83543;PMS5003;73487;54.448;-0.942;2024-03-02T06:03:50;10;10;3
83543;PMS5003;73487;54.448;-0.942;2024-03-02T06:06:50;11;10;5
83543;PMS5003;73487;54.448;-0.942;2024-03-02T06:09:50;10;9;5
83543;PMS5003;73487;54.448;-0.942;2024-03-02T06:12:50;11;11;5
83543;PMS5003;73487;54.448;-0.942;2024-03-02T06:16:20;10;7;5
83543;PMS5003;73487;54.448;-0.942;2024-03-02T06:19:20;11;11;5
83543;PMS5003;73487;54.448;-0.942;2024-03-02T06:22:20;10;10;6
83543;PMS5003;73487;54.448;-0.942;2024-03-02T06:25:20;14;11;5
83543;PMS5003;73487;54.448;-0.942;2024-03-02T06:28:20;13;10;5
83543;PMS5003;73487;54.448;-0.942;2024-03-02T06:31:20;13;13;6
83543;PMS5003;73487;54.448;-0.942;2024-03-02T06:34:20;14;10;5
83543;PMS5003;73487;54.448;-0.942;2024-03-02T06:37:20;13;10;6
83543;PMS5003;73487;54.448;-0.942;2024-03-02T06:40:20;9;9;5
83543;PMS5003;73487;54.448;-0.942;2024-03-02T06:43:21;9;9;5
83543;PMS5003;73487;54.448;-0.942;2024-03-02T06:46:20;11;9;5
83543;PMS5003;73487;54.448;-0.942;2024-03-02T06:49:20;14;11;6
83543;PMS5003;73487;54.448;-0.942;2024-03-02T06:52:21;14;12;6
83543;PMS5003;73487;54.448;-0.942;2024-03-02T06:55:20;9;7;3
83543;PMS5003;73487;54.448;-0.942;2024-03-02T06:58:20;11;10;5
83543;PMS5003;73487;54.448;-0.942;2024-03-02T07:01:20;15;14;6
83543;PMS5003;73487;54.448;-0.942;2024-03-02T07:04:20;13;11;5
83543;PMS5003;73487;54.448;-0.942;2024-03-02T07:07:21;13;11;6
83543;PMS5003;73487;54.448;-0.942;2024-03-02T07:10:20;15;14;5
83543;PMS5003;73487;54.448;-0.942;2024-03-02T07:13:20;10;7;6
83543;PMS5003;73487;54.448;-0.942;2024-03-02T07:16:20;10;10;5
83543;PMS5003;73487;54.448;-0.942;2024-03-02T07:19:20;15;10;5
83543;PMS5003;73487;54.448;-0.942;2024-03-02T07:22:20;12;11;6
83543;PMS5003;73487;54.448;-0.942;2024-03-02T07:25:20;14;13;6
83543;PMS5003;73487;54.448;-0.942;2024-03-02T07:28:20;12;12;5
83543;PMS5003;73487;54.448;-0.942;2024-03-02T07:31:20;14;14;5
83543;PMS5003;73487;54.448;-0.942;2024-03-02T07:34:20;15;13;5
83543;PMS5003;73487;54.448;-0.942;2024-03-02T07:37:21;16;15;6
83543;PMS5003;73487;54.448;-0.942;2024-03-02T07:40:20;13;11;3
83543;PMS5003;73487;54.448;-0.942;2024-03-02T07:43:21;14;12;7
83543;PMS5003;73487;54.448;-0.942;2024-03-02T07:46:20;22;18;7
83543;PMS5003;73487;54.448;-0.942;2024-03-02T07:49:20;16;15;7
83543;PMS5003;73487;54.448;-0.942;2024-03-02T07:52:20;14;11;6
83543;PMS5003;73487;54.448;-0.942;2024-03-02T07:55:20;10;9;5
83543;PMS5003;73487;54.448;-0.942;2024-03-02T07:58:20;16;15;3
83543;PMS5003;73487;54.448;-0.942;2024-03-02T08:01:20;6;5;2
83543;PMS5003;73487;54.448;-0.942;2024-03-02T08:04:20;6;5;2
83543;PMS5003;73487;54.448;-0.942;2024-03-02T08:07:20;5;5;3
83543;PMS5003;73487;54.448;-0.942;2024-03-02T08:10:20;5;5;2
83543;PMS5003;73487;54.448;-0.942;2024-03-02T08:13:20;3;3;1
83543;PMS5003;73487;54.448;-0.942;2024-03-02T08:16:21;5;3;1
83543;PMS5003;73487;54.448;-0.942;2024-03-02T08:19:20;5;3;1
83543;PMS5003;73487;54.448;-0.942;2024-03-02T08:22:20;7;7;2
83543;PMS5003;73487;54.448;-0.942;2024-03-02T08:25:21;3;3;1
83543;PMS5003;73487;54.448;-0.942;2024-03-02T08:28:20;6;6;2
83543;PMS5003;73487;54.448;-0.942;2024-03-02T08:31:20;7;6;2
83543;PMS5003;73487;54.448;-0.942;2024-03-02T08:34:20;10;7;2
83543;PMS5003;73487;54.448;-0.942;2024-03-02T08:37:20;6;5;2
83543;PMS5003;73487;54.448;-0.942;2024-03-02T08:40:20;5;5;2
83543;PMS5003;73487;54.448;-0.942;2024-03-02T08:43:20;6;5;2
83543;PMS5003;73487;54.448;-0.942;2024-03-02T08:46:20;7;5;3
83543;PMS5003;73487;54.448;-0.942;2024-03-02T08:49:20;6;5;3
83543;PMS5003;73487;54.448;-0.942;2024-03-02T08:52:20;6;6;2
83543;PMS5003;73487;54.448;-0.942;2024-03-02T08:55:20;6;5;2
83543;PMS5003;73487;54.448;-0.942;2024-03-02T08:58:20;2;2;2
83543;PMS5003;73487;54.448;-0.942;2024-03-02T09:01:20;3;3;2
83543;PMS5003;73487;54.448;-0.942;2024-03-02T09:04:20;4;3;2
83543;PMS5003;73487;54.448;-0.942;2024-03-02T09:07:20;3;3;1
83543;PMS5003;73487;54.448;-0.942;2024-03-02T09:10:20;3;3;2
83543;PMS5003;73487;54.448;-0.942;2024-03-02T09:13:20;3;3;1
83543;PMS5003;73487;54.448;-0.942;2024-03-02T09:16:20;1;1;1
83543;PMS5003;73487;54.448;-0.942;2024-03-02T09:19:20;1;1;1
83543;PMS5003;73487;54.448;-0.942;2024-03-02T09:22:21;2;1;0
83543;PMS5003;73487;54.448;-0.942;2024-03-02T09:25:20;1;1;0
83543;PMS5003;73487;54.448;-0.942;2024-03-02T09:28:50;0;0;0
83543;PMS5003;73487;54.448;-0.942;2024-03-02T09:31:50;0;0;0
83543;PMS5003;73487;54.448;-0.942;2024-03-02T09:34:50;2;1;0
83543;PMS5003;73487;54.448;-0.942;2024-03-02T09:37:50;1;0;0
83543;PMS5003;73487;54.448;-0.942;2024-03-02T09:40:50;1;1;1
83543;PMS5003;73487;54.448;-0.942;2024-03-02T09:43:51;0;0;0
83543;PMS5003;73487;54.448;-0.942;2024-03-02T09:46:51;0;0;0
83543;PMS5003;73487;54.448;-0.942;2024-03-02T09:49:50;1;1;1
83543;PMS5003;73487;54.448;-0.942;2024-03-02T09:52:50;1;1;0
83543;PMS5003;73487;54.448;-0.942;2024-03-02T09:55:50;2;2;2
83543;PMS5003;73487;54.448;-0.942;2024-03-02T09:58:50;3;3;1
83543;PMS5003;73487;54.448;-0.942;2024-03-02T10:04:50;2;2;1
83543;PMS5003;73487;54.448;-0.942;2024-03-02T10:10:50;3;3;3
83543;PMS5003;73487;54.448;-0.942;2024-03-02T10:13:50;2;2;1
83543;PMS5003;73487;54.448;-0.942;2024-03-02T10:16:50;3;3;2
83543;PMS5003;73487;54.448;-0.942;2024-03-02T10:19:50;3;2;1
83543;PMS5003;73487;54.448;-0.942;2024-03-02T10:22:51;2;2;1
83543;PMS5003;73487;54.448;-0.942;2024-03-02T10:25:50;4;3;2
83543;PMS5003;73487;54.448;-0.942;2024-03-02T10:28:50;3;3;1
83543;PMS5003;73487;54.448;-0.942;2024-03-02T10:31:50;2;2;1
83543;PMS5003;73487;54.448;-0.942;2024-03-02T10:34:51;7;4;2
83543;PMS5003;73487;54.448;-0.942;2024-03-02T10:37:51;6;6;3
83543;PMS5003;73487;54.448;-0.942;2024-03-02T10:40:50;6;4;2
83543;PMS5003;73487;54.448;-0.942;2024-03-02T10:43:51;2;2;1
83543;PMS5003;73487;54.448;-0.942;2024-03-02T10:46:50;2;2;1
83543;PMS5003;73487;54.448;-0.942;2024-03-02T10:49:50;2;2;1
83543;PMS5003;73487;54.448;-0.942;2024-03-02T10:52:51;3;3;1
83543;PMS5003;73487;54.448;-0.942;2024-03-02T10:55:51;4;4;2
83543;PMS5003;73487;54.448;-0.942;2024-03-02T10:58:51;3;3;1
83543;PMS5003;73487;54.448;-0.942;2024-03-02T11:01:50;3;3;2
83543;PMS5003;73487;54.448;-0.942;2024-03-02T11:04:51;2;2;1
83543;PMS5003;73487;54.448;-0.942;2024-03-02T11:07:51;2;2;1
83543;PMS5003;73487;54.448;-0.942;2024-03-02T11:10:51;6;6;2
83543;PMS5003;73487;54.448;-0.942;2024-03-02T11:13:50;3;3;2
83543;PMS5003;73487;54.448;-0.942;2024-03-02T11:16:51;3;3;2
83543;PMS5003;73487;54.448;-0.942;2024-03-02T11:19:50;6;4;1
83543;PMS5003;73487;54.448;-0.942;2024-03-02T11:22:51;4;4;2
83543;PMS5003;73487;54.448;-0.942;2024-03-02T11:25:51;4;3;2
83543;PMS5003;73487;54.448;-0.942;2024-03-02T11:28:51;4;3;1
83543;PMS5003;73487;54.448;-0.942;2024-03-02T11:34:51;2;2;1
83543;PMS5003;73487;54.448;-0.942;2024-03-02T11:37:51;3;2;1
83543;PMS5003;73487;54.448;-0.942;2024-03-02T11:40:51;3;2;1
83543;PMS5003;73487;54.448;-0.942;2024-03-02T11:43:50;3;2;1
83543;PMS5003;73487;54.448;-0.942;2024-03-02T11:49:51;4;4;2
83543;PMS5003;73487;54.448;-0.942;2024-03-02T11:52:51;6;4;2
83543;PMS5003;73487;54.448;-0.942;2024-03-02T11:55:51;3;3;2
83543;PMS5003;73487;54.448;-0.942;2024-03-02T11:58:53;2;1;0
83543;PMS5003;73487;54.448;-0.942;2024-03-02T12:01:51;3;3;1
83543;PMS5003;73487;54.448;-0.942;2024-03-02T12:04:51;3;3;2
83543;PMS5003;73487;54.448;-0.942;2024-03-02T12:07:55;6;3;1
83543;PMS5003;73487;54.448;-0.942;2024-03-02T12:13:53;3;3;2
83543;PMS5003;73487;54.448;-0.942;2024-03-02T12:16:51;6;3;1
83543;PMS5003;73487;54.448;-0.942;2024-03-02T12:19:51;4;4;1
83543;PMS5003;73487;54.448;-0.942;2024-03-02T12:22:51;3;3;2
83543;PMS5003;73487;54.448;-0.942;2024-03-02T12:25:51;4;4;1
83543;PMS5003;73487;54.448;-0.942;2024-03-02T12:28:51;4;4;2
83543;PMS5003;73487;54.448;-0.942;2024-03-02T12:31:51;4;3;2
83543;PMS5003;73487;54.448;-0.942;2024-03-02T12:34:51;7;6;2
83543;PMS5003;73487;54.448;-0.942;2024-03-02T12:37:51;4;4;3
83543;PMS5003;73487;54.448;-0.942;2024-03-02T12:40:51;6;4;2
83543;PMS5003;73487;54.448;-0.942;2024-03-02T12:43:51;5;4;3
83543;PMS5003;73487;54.448;-0.942;2024-03-02T12:46:51;4;3;2
83543;PMS5003;73487;54.448;-0.942;2024-03-02T12:50:21;4;3;2
83543;PMS5003;73487;54.448;-0.942;2024-03-02T12:53:21;7;6;2
83543;PMS5003;73487;54.448;-0.942;2024-03-02T12:56:21;6;3;2
83543;PMS5003;73487;54.448;-0.942;2024-03-02T12:59:22;4;2;1
83543;PMS5003;73487;54.448;-0.942;2024-03-02T13:02:21;3;2;1
83543;PMS5003;73487;54.448;-0.942;2024-03-02T13:05:21;4;3;2
83543;PMS5003;73487;54.448;-0.942;2024-03-02T13:08:21;3;2;1
83543;PMS5003;73487;54.448;-0.942;2024-03-02T13:11:21;2;2;1
83543;PMS5003;73487;54.448;-0.942;2024-03-02T13:14:23;3;2;1
83543;PMS5003;73487;54.448;-0.942;2024-03-02T13:17:21;3;3;1
83543;PMS5003;73487;54.448;-0.942;2024-03-02T13:20:21;2;2;1
83543;PMS5003;73487;54.448;-0.942;2024-03-02T13:23:21;3;2;1
83543;PMS5003;73487;54.448;-0.942;2024-03-02T13:26:21;4;4;1
83543;PMS5003;73487;54.448;-0.942;2024-03-02T13:29:21;2;2;1
83543;PMS5003;73487;54.448;-0.942;2024-03-02T13:32:21;3;3;2
83543;PMS5003;73487;54.448;-0.942;2024-03-02T13:35:21;6;6;2
83543;PMS5003;73487;54.448;-0.942;2024-03-02T13:38:21;4;4;1
83543;PMS5003;73487;54.448;-0.942;2024-03-02T13:41:21;3;3;2
83543;PMS5003;73487;54.448;-0.942;2024-03-02T13:44:21;3;3;1
83543;PMS5003;73487;54.448;-0.942;2024-03-02T13:47:21;6;6;3
83543;PMS5003;73487;54.448;-0.942;2024-03-02T13:50:21;6;6;3
83543;PMS5003;73487;54.448;-0.942;2024-03-02T13:53:21;7;7;3
83543;PMS5003;73487;54.448;-0.942;2024-03-02T13:56:21;7;6;2
83543;PMS5003;73487;54.448;-0.942;2024-03-02T13:59:21;8;7;4
83543;PMS5003;73487;54.448;-0.942;2024-03-02T14:02:21;8;7;4
83543;PMS5003;73487;54.448;-0.942;2024-03-02T14:05:21;4;4;2
83543;PMS5003;73487;54.448;-0.942;2024-03-02T14:08:21;7;7;3
83543;PMS5003;73487;54.448;-0.942;2024-03-02T14:11:21;6;4;3
83543;PMS5003;73487;54.448;-0.942;2024-03-02T14:14:21;6;6;3
83543;PMS5003;73487;54.448;-0.942;2024-03-02T14:17:21;4;4;2
83543;PMS5003;73487;54.448;-0.942;2024-03-02T14:20:21;4;4;2
83543;PMS5003;73487;54.448;-0.942;2024-03-02T14:23:21;3;3;1
83543;PMS5003;73487;54.448;-0.942;2024-03-02T14:26:21;4;3;2
83543;PMS5003;73487;54.448;-0.942;2024-03-02T14:29:21;5;4;2
83543;PMS5003;73487;54.448;-0.942;2024-03-02T14:32:21;6;6;3
83543;PMS5003;73487;54.448;-0.942;2024-03-02T14:35:21;6;4;1
83543;PMS5003;73487;54.448;-0.942;2024-03-02T14:41:31;9;8;6
83543;PMS5003;73487;54.448;-0.942;2024-03-02T14:44:30;7;5;3
83543;PMS5003;73487;54.448;-0.942;2024-03-02T14:47:33;4;4;2
83543;PMS5003;73487;54.448;-0.942;2024-03-02T14:50:30;10;7;4
83543;PMS5003;73487;54.448;-0.942;2024-03-02T14:53:30;8;7;4
83543;PMS5003;73487;54.448;-0.942;2024-03-02T14:56:30;7;6;2
83543;PMS5003;73487;54.448;-0.942;2024-03-02T14:59:30;10;7;4
83543;PMS5003;73487;54.448;-0.942;2024-03-02T15:02:30;9;8;4
83543;PMS5003;73487;54.448;-0.942;2024-03-02T15:05:30;10;9;5
83543;PMS5003;73487;54.448;-0.942;2024-03-02T15:08:30;7;7;3
83543;PMS5003;73487;54.448;-0.942;2024-03-02T15:11:30;10;7;3
83543;PMS5003;73487;54.448;-0.942;2024-03-02T15:14:30;8;7;4
83543;PMS5003;73487;54.448;-0.942;2024-03-02T15:17:30;7;6;3
83543;PMS5003;73487;54.448;-0.942;2024-03-02T15:20:30;8;7;4
83543;PMS5003;73487;54.448;-0.942;2024-03-02T15:23:30;8;8;4
83543;PMS5003;73487;54.448;-0.942;2024-03-02T15:26:30;6;6;2
83543;PMS5003;73487;54.448;-0.942;2024-03-02T15:29:30;6;6;2
83543;PMS5003;73487;54.448;-0.942;2024-03-02T15:32:30;10;9;4
83543;PMS5003;73487;54.448;-0.942;2024-03-02T15:35:30;9;9;4
83543;PMS5003;73487;54.448;-0.942;2024-03-02T15:38:30;13;12;6
83543;PMS5003;73487;54.448;-0.942;2024-03-02T15:41:30;8;7;3
83543;PMS5003;73487;54.448;-0.942;2024-03-02T15:44:30;13;9;4
83543;PMS5003;73487;54.448;-0.942;2024-03-02T15:47:30;4;4;2
83543;PMS5003;73487;54.448;-0.942;2024-03-02T15:50:30;9;8;3
83543;PMS5003;73487;54.448;-0.942;2024-03-02T15:53:30;6;6;3
83543;PMS5003;73487;54.448;-0.942;2024-03-02T15:56:30;3;3;1
83543;PMS5003;73487;54.448;-0.942;2024-03-02T15:59:30;7;4;2
83543;PMS5003;73487;54.448;-0.942;2024-03-02T16:02:30;12;9;4
83543;PMS5003;73487;54.448;-0.942;2024-03-02T16:05:30;12;9;4
83543;PMS5003;73487;54.448;-0.942;2024-03-02T16:08:30;7;7;3
83543;PMS5003;73487;54.448;-0.942;2024-03-02T16:11:30;7;6;1
83543;PMS5003;73487;54.448;-0.942;2024-03-02T16:14:30;10;8;4
83543;PMS5003;73487;54.448;-0.942;2024-03-02T16:17:30;10;9;3
83543;PMS5003;73487;54.448;-0.942;2024-03-02T16:20:30;6;6;2
83543;PMS5003;73487;54.448;-0.942;2024-03-02T16:23:30;8;6;3
83543;PMS5003;73487;54.448;-0.942;2024-03-02T16:26:30;9;6;2
83543;PMS5003;73487;54.448;-0.942;2024-03-02T16:29:30;4;4;2
83543;PMS5003;73487;54.448;-0.942;2024-03-02T16:33:00;3;3;2
83543;PMS5003;73487;54.448;-0.942;2024-03-02T16:36:00;7;7;3
83543;PMS5003;73487;54.448;-0.942;2024-03-02T16:39:00;7;4;3
83543;PMS5003;73487;54.448;-0.942;2024-03-02T16:42:00;8;8;4
83543;PMS5003;73487;54.448;-0.942;2024-03-02T16:45:00;7;6;3
83543;PMS5003;73487;54.448;-0.942;2024-03-02T16:48:00;4;4;2
83543;PMS5003;73487;54.448;-0.942;2024-03-02T16:51:00;6;3;2
83543;PMS5003;73487;54.448;-0.942;2024-03-02T16:54:00;4;2;1
83543;PMS5003;73487;54.448;-0.942;2024-03-02T16:57:00;4;3;2
83543;PMS5003;73487;54.448;-0.942;2024-03-02T17:00:00;4;3;2
83543;PMS5003;73487;54.448;-0.942;2024-03-02T17:03:00;6;4;2
83543;PMS5003;73487;54.448;-0.942;2024-03-02T17:06:00;6;6;2
83543;PMS5003;73487;54.448;-0.942;2024-03-02T17:09:00;3;3;1
83543;PMS5003;73487;54.448;-0.942;2024-03-02T17:12:00;6;4;2
83543;PMS5003;73487;54.448;-0.942;2024-03-02T17:15:00;2;2;1
83543;PMS5003;73487;54.448;-0.942;2024-03-02T17:18:00;86;67;40
83543;PMS5003;73487;54.448;-0.942;2024-03-02T17:21:00;91;76;41
83543;PMS5003;73487;54.448;-0.942;2024-03-02T17:24:00;41;38;21
83543;PMS5003;73487;54.448;-0.942;2024-03-02T17:27:00;12;12;7
83543;PMS5003;73487;54.448;-0.942;2024-03-02T17:30:00;8;8;6
83543;PMS5003;73487;54.448;-0.942;2024-03-02T17:33:00;9;8;7
83543;PMS5003;73487;54.448;-0.942;2024-03-02T17:36:00;7;7;3
83543;PMS5003;73487;54.448;-0.942;2024-03-02T17:39:00;9;8;3
83543;PMS5003;73487;54.448;-0.942;2024-03-02T17:42:00;9;9;7
83543;PMS5003;73487;54.448;-0.942;2024-03-02T17:45:00;4;3;2
83543;PMS5003;73487;54.448;-0.942;2024-03-02T17:48:00;2;2;1
83543;PMS5003;73487;54.448;-0.942;2024-03-02T17:51:00;4;3;2
83543;PMS5003;73487;54.448;-0.942;2024-03-02T17:54:00;7;6;3
83543;PMS5003;73487;54.448;-0.942;2024-03-02T17:57:00;2;2;1
83543;PMS5003;73487;54.448;-0.942;2024-03-02T18:00:00;2;2;1
83543;PMS5003;73487;54.448;-0.942;2024-03-02T18:03:00;0;0;0
83543;PMS5003;73487;54.448;-0.942;2024-03-02T18:06:02;0;0;0
83543;PMS5003;73487;54.448;-0.942;2024-03-02T18:09:00;0;0;0
83543;PMS5003;73487;54.448;-0.942;2024-03-02T18:12:00;0;0;0
83543;PMS5003;73487;54.448;-0.942;2024-03-02T18:15:00;1;1;0
83543;PMS5003;73487;54.448;-0.942;2024-03-02T18:18:00;0;0;0
83543;PMS5003;73487;54.448;-0.942;2024-03-02T18:21:00;1;1;0
83543;PMS5003;73487;54.448;-0.942;2024-03-02T18:24:00;3;2;1
83543;PMS5003;73487;54.448;-0.942;2024-03-02T18:27:00;1;1;1
83543;PMS5003;73487;54.448;-0.942;2024-03-02T18:30:00;1;1;1
83543;PMS5003;73487;54.448;-0.942;2024-03-02T18:33:00;2;1;1
83543;PMS5003;73487;54.448;-0.942;2024-03-02T18:36:00;2;2;1
83543;PMS5003;73487;54.448;-0.942;2024-03-02T18:39:00;4;3;2
83543;PMS5003;73487;54.448;-0.942;2024-03-02T18:42:00;3;3;2
83543;PMS5003;73487;54.448;-0.942;2024-03-02T18:45:00;2;2;1
83543;PMS5003;73487;54.448;-0.942;2024-03-02T18:48:00;3;3;2
83543;PMS5003;73487;54.448;-0.942;2024-03-02T18:51:04;5;5;3
83543;PMS5003;73487;54.448;-0.942;2024-03-02T18:54:00;3;3;2
83543;PMS5003;73487;54.448;-0.942;2024-03-02T18:57:00;24;24;16
83543;PMS5003;73487;54.448;-0.942;2024-03-02T19:00:00;11;10;6
83543;PMS5003;73487;54.448;-0.942;2024-03-02T19:03:00;12;12;6
83543;PMS5003;73487;54.448;-0.942;2024-03-02T19:06:00;8;8;6
83543;PMS5003;73487;54.448;-0.942;2024-03-02T19:09:00;32;30;16
83543;PMS5003;73487;54.448;-0.942;2024-03-02T19:12:00;11;9;4
83543;PMS5003;73487;54.448;-0.942;2024-03-02T19:15:00;12;12;6
83543;PMS5003;73487;54.448;-0.942;2024-03-02T19:18:00;7;7;3
83543;PMS5003;73487;54.448;-0.942;2024-03-02T19:21:00;10;10;5
83543;PMS5003;73487;54.448;-0.942;2024-03-02T19:24:00;11;10;3
83543;PMS5003;73487;54.448;-0.942;2024-03-02T19:27:00;14;14;6
83543;PMS5003;73487;54.448;-0.942;2024-03-02T19:30:00;8;7;5
83543;PMS5003;73487;54.448;-0.942;2024-03-02T19:33:00;8;7;3
83543;PMS5003;73487;54.448;-0.942;2024-03-02T19:36:00;17;13;10
83543;PMS5003;73487;54.448;-0.942;2024-03-02T19:39:00;16;14;6
83543;PMS5003;73487;54.448;-0.942;2024-03-02T19:42:00;13;13;6
83543;PMS5003;73487;54.448;-0.942;2024-03-02T19:45:30;15;15;7
83543;PMS5003;73487;54.448;-0.942;2024-03-02T19:48:30;20;19;10
83543;PMS5003;73487;54.448;-0.942;2024-03-02T19:51:30;15;15;8
83543;PMS5003;73487;54.448;-0.942;2024-03-02T19:54:30;11;10;5
83543;PMS5003;73487;54.448;-0.942;2024-03-02T19:57:30;15;13;7
83543;PMS5003;73487;54.448;-0.942;2024-03-02T20:00:30;12;12;7
83543;PMS5003;73487;54.448;-0.942;2024-03-02T20:03:30;15;15;6
83543;PMS5003;73487;54.448;-0.942;2024-03-02T20:06:30;11;10;6
83543;PMS5003;73487;54.448;-0.942;2024-03-02T20:09:30;19;17;10